Orient, Maine
Current Conditions -  °F | °C
As of 1:53 PM on Wednesday 26 Nov 2014 (Local Time) from KHUL Reporting Station
Overcast Overcast  
Wind Chill:   Ceiling: 11000
Heat Index:   Visibility: 10mi
Dew Point: -5°   Wind: 5mph
Humidity: 57%   Direction: 350°N
Pressure: 30.15"   Gusts: NA
Location:  45.82°N, 67.84°W
Report Text: KHUL 261853Z AUTO 35004KT 10SM OVC110 03/M05 A3015 RMK AO2 SLP216 T00281050
Loading
Personal Weather Stations






























Interactive Weather Map New forecast layout! Learn more

10-Day Weather Forecast

Advertisements
Track Severe Weather on mobile